createdAt,value
2023-02-02T00:01:25.281Z,100257.94
2023-02-02T00:03:53.496Z,100252.75
2023-02-02T00:06:24.080Z,100256.09
2023-02-02T00:08:52.091Z,100243.09
2023-02-02T00:11:20.219Z,100240.66
2023-02-02T00:13:47.874Z,100252.84
2023-02-02T00:16:36.042Z,100246.72
2023-02-02T00:19:10.089Z,100244.09
2023-02-02T00:21:38.341Z,100248.44
2023-02-02T00:24:07.536Z,100241.44
2023-02-02T00:26:36.180Z,100236.25
2023-02-02T00:29:04.848Z,100242.38
2023-02-02T00:31:33.801Z,100234.34
2023-02-02T00:34:01.392Z,100225.81
2023-02-02T00:36:29.832Z,100236.00
2023-02-02T00:38:57.534Z,100241.94
2023-02-02T00:41:25.025Z,100232.38
2023-02-02T00:44:11.714Z,100233.16
2023-02-02T00:46:41.639Z,100226.31
2023-02-02T00:49:09.673Z,100220.22
2023-02-02T00:51:38.400Z,100222.00
2023-02-02T00:54:06.186Z,100216.97
2023-02-02T00:56:33.669Z,100213.47
2023-02-02T00:59:01.224Z,100218.59
2023-02-02T01:01:29.093Z,100217.72
2023-02-02T01:03:56.996Z,100213.53
2023-02-02T01:06:24.970Z,100207.34
2023-02-02T01:08:53.101Z,100209.09
2023-02-02T01:11:20.806Z,100213.38
2023-02-02T01:13:48.551Z,100209.91
2023-02-02T01:16:16.351Z,100217.56
2023-02-02T01:18:44.164Z,100222.75
2023-02-02T01:21:12.799Z,100220.09
2023-02-02T01:23:40.370Z,100226.25
2023-02-02T01:26:10.138Z,100224.56
2023-02-02T01:28:38.489Z,100216.69
2023-02-02T01:31:18.058Z,100233.22
2023-02-02T01:33:47.700Z,100232.38
2023-02-02T01:36:18.985Z,100233.22
2023-02-02T01:38:47.728Z,100235.88
2023-02-02T01:41:24.259Z,100236.66
2023-02-02T01:43:55.024Z,100240.25
2023-02-02T01:46:28.626Z,100233.38
2023-02-02T01:48:59.146Z,100237.50
2023-02-02T01:51:40.889Z,100238.53
2023-02-02T01:54:31.889Z,100240.06
2023-02-02T01:57:05.223Z,100237.53
2023-02-02T01:59:34.848Z,100231.41
2023-02-02T02:02:03.827Z,100231.63
2023-02-02T02:04:33.277Z,100226.38
2023-02-02T02:07:02.980Z,100234.31
2023-02-02T02:09:31.652Z,100232.59
2023-02-02T02:11:59.774Z,100227.28
2023-02-02T02:14:47.638Z,100226.44
2023-02-02T02:17:32.059Z,100228.16
2023-02-02T02:20:42.982Z,100230.66
2023-02-02T02:23:55.349Z,100234.25
2023-02-02T02:26:41.255Z,100233.72
2023-02-02T02:29:37.215Z,100237.00
2023-02-02T02:32:14.024Z,100237.78
2023-02-02T02:35:06.176Z,100243.75
2023-02-02T02:37:54.396Z,100248.09
2023-02-02T02:40:47.584Z,100248.06
2023-02-02T02:43:21.637Z,100256.78
2023-02-02T02:45:50.705Z,100254.97
2023-02-02T02:48:18.295Z,100252.56
2023-02-02T02:50:48.289Z,100249.88
2023-02-02T02:53:19.663Z,100259.53
2023-02-02T02:56:01.739Z,100263.78
2023-02-02T02:58:49.405Z,100255.91
2023-02-02T03:01:40.314Z,100263.72
2023-02-02T03:04:32.747Z,100261.13
2023-02-02T03:07:35.719Z,100262.75
2023-02-02T03:10:07.918Z,100267.19
2023-02-02T03:12:45.114Z,100263.81
2023-02-02T03:15:13.548Z,100262.94
2023-02-02T03:17:43.253Z,100262.06
2023-02-02T03:20:11.537Z,100264.66
2023-02-02T03:22:40.099Z,100264.56
2023-02-02T03:25:11.351Z,100261.09
2023-02-02T03:27:40.057Z,100267.94
2023-02-02T03:30:12.476Z,100271.28
2023-02-02T03:32:40.654Z,100270.41
2023-02-02T03:35:09.346Z,100278.22
2023-02-02T03:37:36.944Z,100283.41
2023-02-02T03:40:06.325Z,100276.44
2023-02-02T03:42:33.911Z,100272.75
2023-02-02T03:45:01.573Z,100274.59
2023-02-02T03:47:30.261Z,100284.00
2023-02-02T03:49:58.715Z,100288.22
2023-02-02T03:52:26.611Z,100294.31
2023-02-02T03:54:54.085Z,100294.41
2023-02-02T03:57:21.685Z,100296.03
2023-02-02T03:59:49.289Z,100289.94
2023-02-02T04:02:16.865Z,100293.13
2023-02-02T04:05:49.594Z,100292.25
2023-02-02T04:08:18.847Z,100300.91
2023-02-02T04:10:48.087Z,100300.19
2023-02-02T04:13:17.014Z,100305.38
2023-02-02T04:15:46.109Z,100308.81
2023-02-02T04:18:15.306Z,100306.28
2023-02-02T04:20:44.393Z,100305.38
2023-02-02T04:23:13.774Z,100312.34
2023-02-02T04:25:50.996Z,100321.91
2023-02-02T04:28:20.817Z,100313.19
2023-02-02T04:30:49.530Z,100324.41
2023-02-02T04:33:21.552Z,100320.06
2023-02-02T04:35:51.433Z,100317.44
2023-02-02T04:38:20.823Z,100316.84
2023-02-02T04:40:50.230Z,100321.19
2023-02-02T04:43:21.780Z,100317.75
2023-02-02T04:45:58.204Z,100317.69
2023-02-02T04:48:27.130Z,100321.84
2023-02-02T04:51:06.030Z,100323.59
2023-02-02T04:53:35.265Z,100322.72
2023-02-02T04:56:17.328Z,100322.63
2023-02-02T04:58:47.388Z,100331.34
2023-02-02T05:01:21.452Z,100333.00
2023-02-02T05:03:51.406Z,100333.06
2023-02-02T05:06:20.564Z,100334.91
2023-02-02T05:08:49.553Z,100339.22
2023-02-02T05:11:24.107Z,100336.50
2023-02-02T05:13:55.319Z,100345.00
2023-02-02T05:16:27.046Z,100340.69
2023-02-02T05:19:00.099Z,100347.72
2023-02-02T05:21:29.794Z,100349.38
2023-02-02T05:23:59.895Z,100355.44
2023-02-02T05:26:29.530Z,100351.91
2023-02-02T05:28:58.844Z,100358.06
2023-02-02T05:31:28.014Z,100357.06
2023-02-02T05:33:57.129Z,100361.50
2023-02-02T05:36:26.210Z,100361.63
2023-02-02T05:38:55.562Z,100360.59
2023-02-02T05:41:24.724Z,100364.97
2023-02-02T05:43:53.664Z,100369.28
2023-02-02T05:46:22.621Z,100373.47
2023-02-02T05:48:51.589Z,100374.09
2023-02-02T05:51:29.678Z,100365.75
2023-02-02T05:54:00.885Z,100377.22
2023-02-02T05:56:30.253Z,100379.59
2023-02-02T05:59:00.721Z,100388.22
2023-02-02T06:01:29.916Z,100383.88
2023-02-02T06:03:59.169Z,100386.38
2023-02-02T06:06:28.551Z,100396.66
2023-02-02T06:08:57.707Z,100400.16
2023-02-02T06:11:27.187Z,100400.28
2023-02-02T06:13:56.489Z,100406.50
2023-02-02T06:16:26.091Z,100401.16
2023-02-02T06:18:55.490Z,100405.56
2023-02-02T06:21:25.361Z,100407.16
2023-02-02T06:23:54.288Z,100410.63
2023-02-02T06:26:24.004Z,100410.47
2023-02-02T06:28:54.945Z,100415.81
2023-02-02T06:31:25.180Z,100416.63
2023-02-02T06:33:57.330Z,100424.44
2023-02-02T06:36:28.531Z,100425.22
2023-02-02T06:38:59.091Z,100422.34
2023-02-02T06:41:28.532Z,100420.50
2023-02-02T06:43:57.763Z,100419.63
2023-02-02T06:46:26.878Z,100426.50
2023-02-02T06:48:56.450Z,100430.00
2023-02-02T06:51:25.771Z,100429.78
2023-02-02T06:53:56.476Z,100441.09
2023-02-02T06:56:27.525Z,100424.00
2023-02-02T06:58:56.929Z,100415.19
2023-02-02T07:01:26.380Z,100426.66
2023-02-02T07:03:56.332Z,100427.34
2023-02-02T07:06:28.929Z,100418.56
2023-02-02T07:09:01.729Z,100433.56
2023-02-02T07:11:39.773Z,100436.94
2023-02-02T07:14:15.579Z,100440.91
2023-02-02T07:16:45.433Z,100436.56
2023-02-02T07:19:14.825Z,100428.97
2023-02-02T07:21:44.867Z,100438.44
2023-02-02T07:24:14.392Z,100442.84
2023-02-02T07:26:44.537Z,100441.88
2023-02-02T07:29:15.069Z,100430.56
2023-02-02T07:31:52.252Z,100428.69
2023-02-02T07:34:22.587Z,100433.63
2023-02-02T07:36:55.789Z,100435.16
2023-02-02T07:39:28.391Z,100437.94
2023-02-02T07:41:57.530Z,100438.16
2023-02-02T07:44:35.269Z,100438.03
2023-02-02T07:47:04.391Z,100437.13
2023-02-02T07:49:33.965Z,100440.47
2023-02-02T07:52:03.373Z,100440.47
2023-02-02T07:54:32.838Z,100448.16
2023-02-02T07:57:02.864Z,100450.22
2023-02-02T07:59:32.549Z,100451.13
2023-02-02T08:02:01.906Z,100458.19
2023-02-02T08:04:34.825Z,100450.22
2023-02-02T08:07:04.583Z,100448.16
2023-02-02T08:09:34.223Z,100464.66
2023-02-02T08:12:03.244Z,100450.47
2023-02-02T08:14:33.035Z,100440.06
2023-02-02T08:17:04.194Z,100443.31
2023-02-02T08:19:38.351Z,100434.69
2023-02-02T08:22:07.163Z,100433.81
2023-02-02T08:24:40.948Z,100436.31
2023-02-02T08:27:16.034Z,100435.03
2023-02-02T08:29:46.659Z,100433.19
2023-02-02T08:32:15.575Z,100439.38
2023-02-02T08:34:45.911Z,100423.66
2023-02-02T08:37:50.646Z,100427.75
2023-02-02T08:40:21.382Z,100429.91
2023-02-02T08:42:55.021Z,100429.28
2023-02-02T08:46:01.759Z,100428.97
2023-02-02T08:48:13.448Z,100422.03
2023-02-02T08:50:42.592Z,100414.06
2023-02-02T08:53:11.266Z,100416.41
2023-02-02T08:55:40.347Z,100400.16
2023-02-02T08:58:10.147Z,100409.28
2023-02-02T09:00:37.852Z,100411.81
2023-02-02T09:03:05.652Z,100409.56
2023-02-02T09:05:35.836Z,100394.56
2023-02-02T09:08:04.016Z,100397.25
2023-02-02T09:10:32.280Z,100401.75
2023-02-02T09:12:59.993Z,100399.94
2023-02-02T09:15:27.695Z,100388.56
2023-02-02T09:17:56.902Z,100392.19
2023-02-02T09:20:24.569Z,100387.69
2023-02-02T09:22:54.959Z,100381.25
2023-02-02T09:25:22.595Z,100387.69
2023-02-02T09:27:51.663Z,100373.78
2023-02-02T09:30:19.580Z,100383.91
2023-02-02T09:32:50.146Z,100376.09
2023-02-02T09:35:18.203Z,100380.44
2023-02-02T09:37:46.848Z,100384.00
2023-02-02T09:40:19.141Z,100382.28
2023-02-02T09:43:03.098Z,100378.63
2023-02-02T09:46:01.652Z,100380.47
2023-02-02T09:48:54.955Z,100375.91
2023-02-02T09:51:26.067Z,100377.16
2023-02-02T09:54:00.922Z,100373.59
2023-02-02T09:56:41.283Z,100364.16
2023-02-02T09:59:24.759Z,100372.06
2023-02-02T10:01:56.327Z,100377.06
2023-02-02T10:04:39.975Z,100382.16
2023-02-02T10:07:15.769Z,100368.16
2023-02-02T10:09:57.607Z,100361.41
2023-02-02T10:12:41.027Z,100369.88
2023-02-02T10:15:18.858Z,100364.50
2023-02-02T10:17:55.121Z,100367.69
2023-02-02T10:20:51.277Z,100372.28
2023-02-02T10:23:26.613Z,100371.44
2023-02-02T10:26:01.126Z,100373.53
2023-02-02T10:28:49.206Z,100367.34
2023-02-02T10:31:29.482Z,100369.63
2023-02-02T10:34:21.919Z,100364.69
2023-02-02T10:36:52.348Z,100354.38
2023-02-02T10:39:31.402Z,100357.34
2023-02-02T10:42:05.038Z,100351.69
2023-02-02T10:44:50.667Z,100365.34
2023-02-02T10:47:28.098Z,100362.81
2023-02-02T10:50:18.032Z,100360.09
2023-02-02T10:53:01.737Z,100358.88
2023-02-02T10:56:07.091Z,100363.16
2023-02-02T10:58:50.580Z,100365.16
2023-02-02T11:01:19.315Z,100367.72
2023-02-02T11:03:47.044Z,100380.06
2023-02-02T11:06:34.348Z,100369.78
2023-02-02T11:09:04.068Z,100373.53
2023-02-02T11:11:34.616Z,100378.94
2023-02-02T11:14:13.052Z,100367.75
2023-02-02T11:16:44.436Z,100377.06
2023-02-02T11:19:19.745Z,100376.84
2023-02-02T11:21:54.235Z,100371.13
2023-02-02T11:24:36.781Z,100374.13
2023-02-02T11:27:31.576Z,100370.72
2023-02-02T11:30:08.079Z,100367.84
2023-02-02T11:32:37.829Z,100372.94
2023-02-02T11:35:08.355Z,100372.72
2023-02-02T11:37:51.810Z,100366.91
2023-02-02T11:40:45.894Z,100348.59
2023-02-02T11:43:34.741Z,100372.81
2023-02-02T11:46:05.563Z,100373.81
2023-02-02T11:48:39.522Z,100384.28
2023-02-02T11:51:08.778Z,100383.91
2023-02-02T11:53:39.114Z,100387.88
2023-02-02T11:56:19.897Z,100380.38
2023-02-02T11:58:51.380Z,100388.16
2023-02-02T12:01:29.055Z,100381.09
2023-02-02T12:04:02.152Z,100387.78
2023-02-02T12:06:33.367Z,100385.66
2023-02-02T12:09:07.544Z,100392.44
2023-02-02T12:11:57.011Z,100389.63
2023-02-02T12:14:41.569Z,100400.50
2023-02-02T12:17:21.384Z,100402.88
2023-02-02T12:19:49.054Z,100402.09
2023-02-02T12:22:16.917Z,100406.91
2023-02-02T12:24:50.713Z,100410.72
2023-02-02T12:27:47.834Z,100408.78
2023-02-02T12:30:28.677Z,100418.13
2023-02-02T12:33:31.639Z,100412.50
2023-02-02T12:36:06.089Z,100424.94
2023-02-02T12:39:00.576Z,100421.00
2023-02-02T12:41:28.240Z,100420.94
2023-02-02T12:44:20.742Z,100423.94
2023-02-02T12:46:54.700Z,100424.16
2023-02-02T12:49:37.681Z,100424.47
2023-02-02T12:52:26.315Z,100442.53
2023-02-02T12:55:01.147Z,100437.69
2023-02-02T12:57:43.872Z,100433.22
2023-02-02T13:00:24.942Z,100433.94
2023-02-02T13:03:31.553Z,100443.38
2023-02-02T13:06:37.962Z,100439.75
2023-02-02T13:09:12.325Z,100440.84
2023-02-02T13:12:02.986Z,100437.03
2023-02-02T13:14:36.890Z,100438.09
2023-02-02T13:17:15.268Z,100445.94
2023-02-02T13:19:58.135Z,100443.16
2023-02-02T13:22:32.190Z,100451.66
2023-02-02T13:25:02.872Z,100453.09
2023-02-02T13:27:33.457Z,100449.22
2023-02-02T13:30:17.915Z,100452.63
2023-02-02T13:32:47.318Z,100456.72
2023-02-02T13:35:27.595Z,100462.53
2023-02-02T13:38:05.128Z,100463.44
2023-02-02T13:40:38.394Z,100465.97
2023-02-02T13:43:12.858Z,100468.59
2023-02-02T13:45:44.340Z,100465.94
2023-02-02T13:48:12.075Z,100465.03
2023-02-02T13:50:51.395Z,100464.34
2023-02-02T13:53:36.959Z,100465.41
2023-02-02T13:56:28.494Z,100469.72
2023-02-02T13:59:23.799Z,100471.22
2023-02-02T14:01:53.487Z,100467.69
2023-02-02T14:04:25.509Z,100462.69
2023-02-02T14:06:59.128Z,100468.19
2023-02-02T14:09:29.437Z,100468.84
2023-02-02T14:12:09.871Z,100471.38
2023-02-02T14:14:40.051Z,100479.91
2023-02-02T14:17:16.532Z,100479.06
2023-02-02T14:19:44.177Z,100473.59
2023-02-02T14:22:14.560Z,100471.22
2023-02-02T14:24:44.154Z,100474.56
2023-02-02T14:27:12.276Z,100484.19
2023-02-02T14:29:46.358Z,100480.31
2023-02-02T14:32:29.291Z,100472.66
2023-02-02T14:34:58.392Z,100478.91
2023-02-02T14:37:29.101Z,100483.34
2023-02-02T14:40:06.268Z,100487.78
2023-02-02T14:43:26.011Z,100487.84
2023-02-02T14:46:12.542Z,100497.38
2023-02-02T14:48:47.312Z,100501.81
2023-02-02T14:51:21.703Z,100501.97
2023-02-02T14:54:01.621Z,100506.50
2023-02-02T14:56:49.993Z,100508.25
2023-02-02T14:59:23.079Z,100514.25
2023-02-02T15:02:10.193Z,100521.00
2023-02-02T15:04:38.299Z,100514.97
2023-02-02T15:07:51.549Z,100525.41
2023-02-02T15:10:52.069Z,100536.81
2023-02-02T15:13:24.512Z,100534.94
2023-02-02T15:16:04.912Z,100531.34
2023-02-02T15:18:44.816Z,100543.91
2023-02-02T15:21:17.183Z,100524.00
2023-02-02T15:23:46.891Z,100524.72
2023-02-02T15:26:31.504Z,100525.63
2023-02-02T15:29:08.102Z,100539.44
2023-02-02T15:31:46.355Z,100537.00
2023-02-02T15:34:25.957Z,100530.13
2023-02-02T15:36:57.693Z,100546.13
2023-02-02T15:39:33.875Z,100555.47
2023-02-02T15:42:23.718Z,100538.81
2023-02-02T15:44:51.578Z,100554.81
2023-02-02T15:47:24.473Z,100554.00
2023-02-02T15:49:52.356Z,100552.22
2023-02-02T15:52:27.229Z,100547.03
2023-02-02T15:54:56.908Z,100547.84
2023-02-02T15:57:33.540Z,100550.63
2023-02-02T16:00:32.133Z,100551.59
2023-02-02T16:03:19.062Z,100547.94
2023-02-02T16:05:53.425Z,100555.69
2023-02-02T16:08:28.347Z,100554.81
2023-02-02T16:11:15.346Z,100550.34
2023-02-02T16:14:02.437Z,100554.66
2023-02-02T16:16:36.285Z,100553.25
2023-02-02T16:19:15.986Z,100560.09
2023-02-02T16:21:54.642Z,100563.72
2023-02-02T16:24:26.207Z,100570.72
2023-02-02T16:26:55.538Z,100565.31
2023-02-02T16:29:24.142Z,100571.41
2023-02-02T16:31:51.969Z,100574.03
2023-02-02T16:34:40.122Z,100594.81
2023-02-02T16:37:14.661Z,100592.31
2023-02-02T16:39:43.052Z,100589.69
2023-02-02T16:42:21.094Z,100584.56
2023-02-02T16:44:49.169Z,100600.28
2023-02-02T16:47:25.802Z,100602.03
2023-02-02T16:50:19.420Z,100605.25
2023-02-02T16:53:05.692Z,100614.81
2023-02-02T16:55:49.135Z,100617.50
2023-02-02T16:58:22.441Z,100610.66
2023-02-02T17:01:14.952Z,100607.47
2023-02-02T17:03:52.714Z,100609.41
2023-02-02T17:06:46.251Z,100611.22
2023-02-02T17:09:34.537Z,100618.31
2023-02-02T17:12:35.671Z,100620.91
2023-02-02T17:15:18.684Z,100614.69
2023-02-02T17:17:49.456Z,100614.00
2023-02-02T17:20:18.437Z,100614.94
2023-02-02T17:23:05.418Z,100608.97
2023-02-02T17:25:40.263Z,100611.66
2023-02-02T17:28:12.581Z,100621.09
2023-02-02T17:30:47.525Z,100618.50
2023-02-02T17:33:18.054Z,100620.25
2023-02-02T17:35:54.847Z,100624.44
2023-02-02T17:38:24.895Z,100621.06
2023-02-02T17:40:53.082Z,100619.34
2023-02-02T17:43:21.028Z,100620.19
2023-02-02T17:45:49.415Z,100615.16
2023-02-02T17:48:17.577Z,100617.75
2023-02-02T17:50:45.445Z,100621.09
2023-02-02T17:53:15.814Z,100627.22
2023-02-02T17:55:46.063Z,100629.81
2023-02-02T17:58:17.238Z,100621.03
2023-02-02T18:00:54.069Z,100628.03
2023-02-02T18:03:37.431Z,100633.16
2023-02-02T18:06:05.518Z,100628.84
2023-02-02T18:08:34.023Z,100634.97
2023-02-02T18:11:01.989Z,100636.53
2023-02-02T18:13:30.047Z,100635.59
2023-02-02T18:15:59.874Z,100636.47
2023-02-02T18:18:29.837Z,100644.06
2023-02-02T18:20:58.649Z,100646.66
2023-02-02T18:23:26.263Z,100644.16
2023-02-02T18:25:54.195Z,100640.56
2023-02-02T18:28:22.077Z,100640.44
2023-02-02T18:30:49.753Z,100634.44
2023-02-02T18:33:19.854Z,100637.75
2023-02-02T18:35:48.312Z,100632.56
2023-02-02T18:38:16.295Z,100633.50
2023-02-02T18:40:43.889Z,100649.16
2023-02-02T18:43:11.737Z,100642.03
2023-02-02T18:45:42.423Z,100646.28
2023-02-02T18:48:10.363Z,100636.66
2023-02-02T18:50:38.162Z,100643.59
2023-02-02T18:53:06.605Z,100639.19
2023-02-02T18:55:34.339Z,100639.09
2023-02-02T18:58:02.599Z,100643.44
2023-02-02T19:00:30.839Z,100631.22
2023-02-02T19:02:58.446Z,100633.03
2023-02-02T19:05:44.626Z,100631.53
2023-02-02T19:08:12.266Z,100629.78
2023-02-02T19:10:40.421Z,100630.69
2023-02-02T19:13:18.316Z,100633.16
2023-02-02T19:15:48.924Z,100637.53
2023-02-02T19:18:21.217Z,100635.00
2023-02-02T19:20:50.302Z,100635.81
2023-02-02T19:23:25.689Z,100644.41
2023-02-02T19:25:56.155Z,100650.41
2023-02-02T19:28:29.120Z,100646.81
2023-02-02T19:30:59.697Z,100649.31
2023-02-02T19:33:33.372Z,100645.00
2023-02-02T19:36:02.061Z,100644.22
2023-02-02T19:38:30.844Z,100638.94
2023-02-02T19:41:00.544Z,100643.38
2023-02-02T19:43:29.279Z,100646.91
2023-02-02T19:45:59.905Z,100646.97
2023-02-02T19:48:36.036Z,100649.63
2023-02-02T19:51:44.289Z,100658.28
2023-02-02T19:54:36.825Z,100652.88
2023-02-02T19:57:21.470Z,100648.34
2023-02-02T19:59:50.990Z,100657.06
2023-02-02T20:02:43.482Z,100661.28
2023-02-02T20:05:10.968Z,100664.72
2023-02-02T20:07:39.292Z,100657.06
2023-02-02T20:10:29.122Z,100653.00
2023-02-02T20:12:57.235Z,100655.63
2023-02-02T20:15:25.884Z,100659.94
2023-02-02T20:17:56.560Z,100659.91
2023-02-02T20:20:29.907Z,100647.06
2023-02-02T20:22:58.061Z,100661.69
2023-02-02T20:25:26.159Z,100659.22
2023-02-02T20:27:54.465Z,100666.16
2023-02-02T20:30:22.310Z,100664.34
2023-02-02T20:32:55.912Z,100666.19
2023-02-02T20:35:32.709Z,100662.00
2023-02-02T20:38:00.633Z,100660.13
2023-02-02T20:40:30.074Z,100657.56
2023-02-02T20:42:58.733Z,100671.53
2023-02-02T20:45:29.659Z,100662.84
2023-02-02T20:47:57.545Z,100666.50
2023-02-02T20:50:25.509Z,100659.72
2023-02-02T20:52:55.774Z,100664.78
2023-02-02T20:55:24.949Z,100671.78
2023-02-02T20:57:53.159Z,100670.97
2023-02-02T21:00:24.079Z,100683.13
2023-02-02T21:02:52.207Z,100680.41
2023-02-02T21:05:20.152Z,100680.56
2023-02-02T21:07:48.779Z,100682.41
2023-02-02T21:10:16.414Z,100681.56
2023-02-02T21:12:44.006Z,100683.34
2023-02-02T21:15:11.635Z,100684.22
2023-02-02T21:17:40.703Z,100686.97
2023-02-02T21:20:10.164Z,100676.53
2023-02-02T21:22:37.724Z,100677.63
2023-02-02T21:25:05.770Z,100686.19
2023-02-02T21:27:33.438Z,100685.25
2023-02-02T21:30:01.119Z,100682.59
2023-02-02T21:32:28.965Z,100691.47
2023-02-02T21:34:56.572Z,100688.88
2023-02-02T21:37:25.154Z,100686.38
2023-02-02T21:39:58.136Z,100693.44
2023-02-02T21:42:28.622Z,100703.84
2023-02-02T21:44:58.496Z,100693.53
2023-02-02T21:47:34.857Z,100699.50
2023-02-02T21:50:16.046Z,100702.03
2023-02-02T21:52:44.031Z,100698.66
2023-02-02T21:55:37.341Z,100696.06
2023-02-02T21:58:19.873Z,100696.34
2023-02-02T22:00:48.622Z,100690.34
2023-02-02T22:03:27.193Z,100692.06
2023-02-02T22:06:12.043Z,100686.91
2023-02-02T22:08:39.688Z,100687.72
2023-02-02T22:11:23.933Z,100688.59
2023-02-02T22:13:52.956Z,100690.31
2023-02-02T22:16:21.056Z,100690.31
2023-02-02T22:18:49.079Z,100692.06
2023-02-02T22:21:20.830Z,100694.69
2023-02-02T22:23:49.256Z,100687.81
2023-02-02T22:26:29.385Z,100699.88
2023-02-02T22:28:57.236Z,100704.25
2023-02-02T22:31:25.961Z,100710.44
2023-02-02T22:33:53.588Z,100707.69
2023-02-02T22:36:21.182Z,100702.47
2023-02-02T22:38:49.135Z,100707.72
2023-02-02T22:41:16.707Z,100706.84
2023-02-02T22:43:44.320Z,100691.22
2023-02-02T22:46:12.031Z,100699.00
2023-02-02T22:48:39.816Z,100706.81
2023-02-02T22:51:07.480Z,100704.97
2023-02-02T22:53:35.133Z,100697.94
2023-02-02T22:56:02.713Z,100696.25
2023-02-02T22:58:31.447Z,100703.97
2023-02-02T23:00:59.110Z,100700.63
2023-02-02T23:03:26.659Z,100686.63
2023-02-02T23:05:54.316Z,100691.91
2023-02-02T23:08:21.918Z,100689.38
2023-02-02T23:11:09.336Z,100687.47
2023-02-02T23:13:37.001Z,100682.50
2023-02-02T23:16:05.002Z,100689.41
2023-02-02T23:18:32.740Z,100695.56
2023-02-02T23:21:00.533Z,100699.75
2023-02-02T23:23:28.087Z,100703.06
2023-02-02T23:25:55.729Z,100706.72
2023-02-02T23:28:23.261Z,100701.81
2023-02-02T23:30:51.643Z,100702.66
2023-02-02T23:33:19.319Z,100706.09
2023-02-02T23:35:46.985Z,100711.47
2023-02-02T23:38:14.643Z,100716.66
2023-02-02T23:40:42.218Z,100712.28
2023-02-02T23:43:10.395Z,100718.19
2023-02-02T23:45:39.060Z,100721.50
2023-02-02T23:48:08.006Z,100712.00
2023-02-02T23:50:40.254Z,100705.03
2023-02-02T23:53:09.584Z,100712.81
2023-02-02T23:55:37.792Z,100711.78
2023-02-02T23:58:06.085Z,100706.63
